Edwardsville, Alabama
Current Conditions -  °F | °C
As of 1:35 PM on Friday 24 Oct 2014 (Local Time) from KCTJ Reporting Station
Clear Clear  
Wind Chill: 22°   Ceiling: Unl
Heat Index: 22°   Visibility: 10mi
Dew Point:   Wind: 3mph
Humidity: 35%   Direction: 320°NW
Pressure: 30.03"   Gusts: NA
Location:  33.71°N, 85.51°W
Report Text: KCTJ 241835Z AUTO 32003KT 10SM CLR 22/06 A3003 RMK AO2
Loading
Personal Weather Stations






























Interactive Weather Map
Tropical Storm Tracking
New forecast layout! Learn more

10-Day Weather Forecast

Advertisements
Track Severe Weather on mobile